Time;durP1;ratioP1;P1;durP2;ratioP2;P2;SDS_P1;SDS_P2;PMS_P1;PMS_P2;Temp;Humidity;BMP_temperature;BMP_pressure;BME280_temperature;BME280_humidity;BME280_pressure;Samples;Min_cycle;Max_cycle;Signal;HPM_P1;HPM_P2
2022/04/23 00:02:03;;;;;;;;;;;;;;;;;;5098469;28;29390;-77
2022/04/23 00:04:30;;;;;;;;;;;;;;;;;;5098540;28;28022;-78
2022/04/23 00:06:55;;;;;;;;;;;;;;;;;;5098321;28;28272;-78
2022/04/23 00:09:20;;;;;;;;;;;;;;;;;;5098375;28;28316;-78
2022/04/23 00:11:45;;;;;;;;;;;;;;;;;;5098045;28;28720;-78
2022/04/23 00:14:11;;;;;;;;;;;;;;;;;;5098000;28;28467;-78
2022/04/23 00:16:36;;;;;;;;;;;;;;;;;;5098351;28;28329;-78
2022/04/23 00:19:01;;;;;;;;;;;;;;;;;;5098128;28;28477;-78
2022/04/23 00:21:26;;;;;;;;;;;;;;;;;;5098072;28;28290;-78
2022/04/23 00:23:51;;;;;;;;;;;;;;;;;;5097954;28;28458;-78
2022/04/23 00:26:16;;;;;;;;;;;;;;;;;;5098053;28;28362;-78
2022/04/23 00:28:41;;;;;;;;;;;;;;;;;;5098047;28;28672;-78
2022/04/23 00:31:06;;;;;;;;;;;;;;;;;;5097714;28;29777;-78
2022/04/23 00:33:32;;;;;;;;;;;;;;;;;;5097801;28;28366;-78
2022/04/23 00:35:57;;;;;;;;;;;;;;;;;;5097798;28;28396;-78
2022/04/23 00:38:23;;;;;;;;;;;;;;;;;;5098190;28;28249;-78
2022/04/23 00:40:48;;;;;;;;;;;;;;;;;;5097391;28;28594;-78
2022/04/23 00:43:14;;;;;;;;;;;;;;;;;;5097537;28;28292;-78
2022/04/23 00:45:41;;;;;;;;;;;;;;;;;;5097572;28;28463;-78
2022/04/23 00:48:06;;;;;;;;;;;;;;;;;;5096984;28;28454;-78
2022/04/23 00:50:31;;;;;;;;;;;;;;;;;;5097254;28;29247;-78
2022/04/23 00:52:56;;;;;;;;;;;;;;;;;;5097656;28;28493;-78
2022/04/23 00:55:21;;;;;;;;;;;;;;;;;;5097567;28;28506;-78
2022/04/23 00:57:46;;;;;;;;;;;;;;;;;;5097829;28;28402;-78
2022/04/23 01:00:12;;;;;;;;;;;;;;;;;;5097012;28;28551;-78
2022/04/23 01:02:37;;;;;;;;;;;;;;;;;;5097349;28;27806;-78
2022/04/23 01:05:02;;;;;;;;;;;;;;;;;;5096360;28;28379;-78
2022/04/23 01:07:27;;;;;;;;;;;;;;;;;;5097334;28;28630;-78
2022/04/23 01:09:53;;;;;;;;;;;;;;;;;;5078963;28;29439;-78
2022/04/23 01:12:19;;;;;;;;;;;;;;;;;;5097181;28;28471;-78
2022/04/23 01:14:45;;;;;;;;;;;;;;;;;;5096214;28;28839;-78
2022/04/23 01:17:10;;;;;;;;;;;;;;;;;;5097016;28;28628;-78
2022/04/23 01:19:35;;;;;;;;;;;;;;;;;;5096588;28;29704;-78
2022/04/23 01:22:00;;;;;;;;;;;;;;;;;;5097145;28;28222;-78
2022/04/23 01:24:25;;;;;;;;;;;;;;;;;;5096862;28;28228;-78
2022/04/23 01:26:50;;;;;;;;;;;;;;;;;;5097322;28;27812;-78
2022/04/23 01:29:17;;;;;;;;;;;;;;;;;;5096371;28;28257;-78
2022/04/23 01:31:42;;;;;;;;;;;;;;;;;;5096867;28;28261;-78
2022/04/23 01:34:07;;;;;;;;;;;;;;;;;;5096632;28;28371;-78
2022/04/23 01:36:32;;;;;;;;;;;;;;;;;;5097042;28;28340;-78
2022/04/23 01:38:57;;;;;;;;;;;;;;;;;;5096914;28;28336;-78
2022/04/23 01:41:22;;;;;;;;;;;;;;;;;;5096553;28;28313;-78
2022/04/23 01:43:48;;;;;;;;;;;;;;;;;;5078247;28;28895;-78
2022/04/23 01:46:13;;;;;;;;;;;;;;;;;;5096764;28;28299;-78
2022/04/23 01:48:38;;;;;;;;;;;;;;;;;;5096581;28;28299;-78
2022/04/23 01:51:03;;;;;;;;;;;;;;;;;;5096732;28;28309;-78
2022/04/23 01:53:28;;;;;;;;;;;;;;;;;;5096171;28;28287;-78
2022/04/23 01:55:54;;;;;;;;;;;;;;;;;;5096859;28;28284;-78
2022/04/23 01:58:19;;;;;;;;;;;;;;;;;;5096252;28;28423;-78
2022/04/23 02:00:44;;;;;;;;;;;;;;;;;;5095119;28;28370;-78
2022/04/23 02:03:09;;;;;;;;;;;;;;;;;;5096563;28;28433;-78
2022/04/23 02:05:34;;;;;;;;;;;;;;;;;;5096414;28;28339;-78
2022/04/23 02:07:59;;;;;;;;;;;;;;;;;;5096216;28;28332;-78
2022/04/23 02:10:24;;;;;;;;;;;;;;;;;;5096065;28;28363;-78
2022/04/23 02:12:49;;;;;;;;;;;;;;;;;;5096154;28;28885;-78
2022/04/23 02:15:14;;;;;;;;;;;;;;;;;;5096533;28;28288;-78
2022/04/23 02:17:40;;;;;;;;;;;;;;;;;;5096230;28;28487;-78
2022/04/23 02:20:05;;;;;;;;;;;;;;;;;;5096300;28;28240;-78
2022/04/23 02:22:30;;;;;;;;;;;;;;;;;;5096274;28;29756;-78
2022/04/23 02:24:56;;;;;;;;;;;;;;;;;;5095952;28;28387;-78
2022/04/23 02:27:21;;;;;;;;;;;;;;;;;;5096322;28;28428;-78
2022/04/23 02:29:46;;;;;;;;;;;;;;;;;;5095903;28;28496;-78
2022/04/23 02:32:11;;;;;;;;;;;;;;;;;;5096183;28;28414;-78
2022/04/23 02:34:37;;;;;;;;;;;;;;;;;;5096120;28;28607;-78
2022/04/23 02:37:02;;;;;;;;;;;;;;;;;;5095982;28;29212;-78
2022/04/23 02:39:27;;;;;;;;;;;;;;;;;;5095881;28;28461;-78
2022/04/23 02:41:52;;;;;;;;;;;;;;;;;;5095768;28;28458;-78
2022/04/23 02:44:17;;;;;;;;;;;;;;;;;;5077588;28;28461;-78
2022/04/23 02:46:45;;;;;;;;;;;;;;;;;;5095588;28;28414;-79
2022/04/23 02:49:10;;;;;;;;;;;;;;;;;;5095862;28;28493;-78
2022/04/23 02:51:36;;;;;;;;;;;;;;;;;;5095907;28;28314;-78
2022/04/23 02:54:01;;;;;;;;;;;;;;;;;;5095739;28;28245;-78
2022/04/23 02:56:26;;;;;;;;;;;;;;;;;;5095643;28;28291;-78
2022/04/23 02:58:51;;;;;;;;;;;;;;;;;;5095674;28;28417;-78
2022/04/23 03:01:17;;;;;;;;;;;;;;;;;;5095577;28;28362;-78
2022/04/23 03:03:42;;;;;;;;;;;;;;;;;;5095473;28;28268;-78
2022/04/23 03:06:07;;;;;;;;;;;;;;;;;;5095205;28;28491;-78
2022/04/23 03:08:32;;;;;;;;;;;;;;;;;;5095426;28;28481;-78
2022/04/23 03:10:57;;;;;;;;;;;;;;;;;;5095389;28;28232;-78
2022/04/23 03:13:23;;;;;;;;;;;;;;;;;;5095555;28;28236;-78
2022/04/23 03:15:49;;;;;;;;;;;;;;;;;;5094989;28;28431;-78
2022/04/23 03:18:14;;;;;;;;;;;;;;;;;;5095327;28;28365;-78
2022/04/23 03:20:40;;;;;;;;;;;;;;;;;;5095405;28;28297;-78
2022/04/23 03:23:06;;;;;;;;;;;;;;;;;;5095388;28;28413;-78
2022/04/23 03:25:34;;;;;;;;;;;;;;;;;;5095558;28;28409;-78
2022/04/23 03:28:00;;;;;;;;;;;;;;;;;;5095098;28;28363;-78
2022/04/23 03:30:25;;;;;;;;;;;;;;;;;;5095084;28;28289;-78
2022/04/23 03:32:50;;;;;;;;;;;;;;;;;;5095272;28;28332;-78
2022/04/23 03:35:15;;;;;;;;;;;;;;;;;;5094916;28;29206;-77
2022/04/23 03:37:40;;;;;;;;;;;;;;;;;;5095101;28;28305;-78
2022/04/23 03:40:05;;;;;;;;;;;;;;;;;;5094928;28;28387;-78
2022/04/23 03:42:31;;;;;;;;;;;;;;;;;;5095053;28;28438;-78
2022/04/23 03:44:56;;;;;;;;;;;;;;;;;;5095314;28;29310;-78
2022/04/23 03:47:23;;;;;;;;;;;;;;;;;;5094836;28;28458;-78
2022/04/23 03:49:48;;;;;;;;;;;;;;;;;;5094973;28;28406;-78
2022/04/23 03:52:13;;;;;;;;;;;;;;;;;;5095083;28;28246;-78
2022/04/23 03:54:38;;;;;;;;;;;;;;;;;;5094861;28;28319;-78
2022/04/23 03:57:03;;;;;;;;;;;;;;;;;;5095142;28;28229;-78
2022/04/23 03:59:30;;;;;;;;;;;;;;;;;;5094994;28;28318;-78
2022/04/23 04:01:55;;;;;;;;;;;;;;;;;;5094620;28;28398;-78
2022/04/23 04:04:21;;;;;;;;;;;;;;;;;;5092665;28;29577;-78
2022/04/23 04:06:46;;;;;;;;;;;;;;;;;;5094577;28;28352;-78
2022/04/23 04:09:11;;;;;;;;;;;;;;;;;;5094876;28;28478;-77
2022/04/23 04:14:20;;;;;;;;;;;;;;;;;;5094800;28;28864;-77
2022/04/23 04:16:47;;;;;;;;;;;;;;;;;;5094823;28;28582;-77
2022/04/23 04:19:14;;;;;;;;;;;;;;;;;;5094683;28;28314;-78
2022/04/23 04:21:39;;;;;;;;;;;;;;;;;;5094649;27;28477;-77
2022/04/23 04:24:04;;;;;;;;;;;;;;;;;;5109250;27;28531;-77
2022/04/23 04:26:29;;;;;;;;;;;;;;;;;;5106966;27;28411;-78
2022/04/23 04:28:54;;;;;;;;;;;;;;;;;;5098178;28;28362;-78
2022/04/23 04:34:03;;;;;;;;;;;;;;;;;;5097647;28;28415;-78
2022/04/23 04:36:28;;;;;;;;;;;;;;;;;;5098093;28;28817;-78
2022/04/23 04:38:53;;;;;;;;;;;;;;;;;;5097842;28;28348;-78
2022/04/23 04:41:19;;;;;;;;;;;;;;;;;;5097928;28;28775;-78
2022/04/23 04:43:44;;;;;;;;;;;;;;;;;;5097895;28;29480;-78
2022/04/23 04:46:09;;;;;;;;;;;;;;;;;;5097577;28;27803;-78
2022/04/23 04:48:34;;;;;;;;;;;;;;;;;;5097732;28;28399;-78
2022/04/23 04:50:59;;;;;;;;;;;;;;;;;;5097773;28;28463;-78
2022/04/23 04:53:24;;;;;;;;;;;;;;;;;;5097506;28;29400;-78
2022/04/23 04:55:49;;;;;;;;;;;;;;;;;;5097719;28;28505;-78
2022/04/23 04:58:14;;;;;;;;;;;;;;;;;;5097395;28;28457;-78
2022/04/23 05:00:40;;;;;;;;;;;;;;;;;;5097622;28;28524;-77
2022/04/23 05:03:05;;;;;;;;;;;;;;;;;;5097427;28;28755;-78
2022/04/23 05:05:30;;;;;;;;;;;;;;;;;;5097478;28;28463;-78
2022/04/23 05:07:55;;;;;;;;;;;;;;;;;;5097179;28;28265;-77
2022/04/23 05:10:20;;;;;;;;;;;;;;;;;;5097474;28;28374;-78
2022/04/23 05:12:45;;;;;;;;;;;;;;;;;;5097165;28;29163;-78
2022/04/23 05:15:11;;;;;;;;;;;;;;;;;;5097011;28;28326;-78
2022/04/23 05:17:36;;;;;;;;;;;;;;;;;;5097014;28;28412;-78
2022/04/23 05:20:02;;;;;;;;;;;;;;;;;;5097036;28;28241;-78
2022/04/23 05:22:27;;;;;;;;;;;;;;;;;;5096909;28;28390;-78
2022/04/23 05:24:52;;;;;;;;;;;;;;;;;;5097173;28;28351;-78
2022/04/23 05:27:17;;;;;;;;;;;;;;;;;;5097029;28;28482;-78
2022/04/23 05:29:42;;;;;;;;;;;;;;;;;;5078865;28;27929;-78
2022/04/23 05:32:07;;;;;;;;;;;;;;;;;;5096342;28;28361;-77
2022/04/23 05:34:34;;;;;;;;;;;;;;;;;;5096445;28;28336;-77
2022/04/23 05:36:59;;;;;;;;;;;;;;;;;;5097167;28;28422;-78
2022/04/23 05:39:24;;;;;;;;;;;;;;;;;;5097023;28;28319;-78
2022/04/23 05:41:49;;;;;;;;;;;;;;;;;;5096837;28;28303;-78
2022/04/23 05:44:14;;;;;;;;;;;;;;;;;;5096529;28;28364;-78
2022/04/23 05:46:40;;;;;;;;;;;;;;;;;;5096678;28;28257;-78
2022/04/23 05:49:05;;;;;;;;;;;;;;;;;;5096877;28;28284;-78
2022/04/23 05:51:30;;;;;;;;;;;;;;;;;;5078028;28;28548;-78
2022/04/23 05:53:55;;;;;;;;;;;;;;;;;;5096521;28;28477;-78
2022/04/23 05:56:20;;;;;;;;;;;;;;;;;;5096682;28;28506;-78
2022/04/23 05:58:46;;;;;;;;;;;;;;;;;;5096477;28;27931;-78
2022/04/23 06:01:11;;;;;;;;;;;;;;;;;;5096418;28;28414;-78
2022/04/23 06:03:36;;;;;;;;;;;;;;;;;;5096434;28;28814;-78
2022/04/23 06:06:01;;;;;;;;;;;;;;;;;;5098815;28;28473;-78
2022/04/23 06:08:26;;;;;;;;;;;;;;;;;;5096481;28;28496;-78
2022/04/23 06:10:52;;;;;;;;;;;;;;;;;;5096511;28;29266;-78
2022/04/23 06:13:17;;;;;;;;;;;;;;;;;;5096054;28;28374;-78
2022/04/23 06:15:42;;;;;;;;;;;;;;;;;;5096363;28;28465;-78
2022/04/23 06:18:07;;;;;;;;;;;;;;;;;;5095978;28;28405;-78
2022/04/23 06:20:32;;;;;;;;;;;;;;;;;;5095925;28;28441;-79
2022/04/23 06:22:58;;;;;;;;;;;;;;;;;;5096113;28;28429;-79
2022/04/23 06:25:23;;;;;;;;;;;;;;;;;;5095961;28;28406;-78
2022/04/23 06:27:50;;;;;;;;;;;;;;;;;;5095963;28;28560;-78
2022/04/23 06:30:16;;;;;;;;;;;;;;;;;;5096086;28;28570;-78
2022/04/23 06:32:41;;;;;;;;;;;;;;;;;;5095414;28;28399;-78
2022/04/23 06:35:06;;;;;;;;;;;;;;;;;;5096213;28;28309;-77
2022/04/23 06:37:32;;;;;;;;;;;;;;;;;;5077717;28;28249;-78
2022/04/23 06:39:57;;;;;;;;;;;;;;;;;;5095614;28;28486;-78
2022/04/23 06:42:22;;;;;;;;;;;;;;;;;;5095785;28;28325;-78
2022/04/23 06:44:48;;;;;;;;;;;;;;;;;;5095766;28;28524;-78
2022/04/23 06:47:13;;;;;;;;;;;;;;;;;;5095208;28;28548;-78
2022/04/23 06:49:38;;;;;;;;;;;;;;;;;;5093595;28;29105;-78
2022/04/23 06:52:03;;;;;;;;;;;;;;;;;;5095807;28;28283;-78
2022/04/23 06:54:28;;;;;;;;;;;;;;;;;;5095872;28;28443;-80
2022/04/23 06:56:53;;;;;;;;;;;;;;;;;;5095564;28;28253;-78
2022/04/23 06:59:18;;;;;;;;;;;;;;;;;;5095264;28;28315;-79
2022/04/23 07:01:44;;;;;;;;;;;;;;;;;;5095051;28;28338;-77
2022/04/23 07:04:09;;;;;;;;;;;;;;;;;;5095179;28;28362;-76
2022/04/23 07:06:34;;;;;;;;;;;;;;;;;;5095733;28;27834;-78
2022/04/23 07:08:59;;;;;;;;;;;;;;;;;;5095270;28;29803;-78
2022/04/23 07:11:25;;;;;;;;;;;;;;;;;;5095143;28;28405;-77
2022/04/23 07:13:50;;;;;;;;;;;;;;;;;;5095430;28;28373;-81
2022/04/23 07:16:16;;;;;;;;;;;;;;;;;;5095806;28;28621;-80
2022/04/23 07:18:41;;;;;;;;;;;;;;;;;;5098470;28;29375;-80
2022/04/23 07:21:06;;;;;;;;;;;;;;;;;;5095417;28;28438;-80
2022/04/23 07:26:16;;;;;;;;;;;;;;;;;;5095331;28;28486;-81
2022/04/23 07:28:41;;;;;;;;;;;;;;;;;;5094996;28;29325;-80
2022/04/23 07:31:06;;;;;;;;;;;;;;;;;;5095113;28;28026;-81
2022/04/23 07:38:59;;;;;;;;;;;;;;;;;;5094292;28;28356;-79
2022/04/23 07:41:24;;;;;;;;;;;;;;;;;;5094861;28;28310;-78
2022/04/23 07:43:49;;;;;;;;;;;;;;;;;;5094698;28;28374;-78
2022/04/23 07:46:14;;;;;;;;;;;;;;;;;;5094569;28;28455;-78
2022/04/23 07:48:39;;;;;;;;;;;;;;;;;;5094453;28;28551;-81
2022/04/23 07:51:04;;;;;;;;;;;;;;;;;;5076336;28;28665;-81
2022/04/23 07:53:29;;;;;;;;;;;;;;;;;;5092922;28;28233;-81
2022/04/23 07:55:54;;;;;;;;;;;;;;;;;;5094842;28;28588;-83
2022/04/23 07:58:20;;;;;;;;;;;;;;;;;;5093827;28;28421;-84
2022/04/23 08:00:45;;;;;;;;;;;;;;;;;;5097905;28;28482;-83
2022/04/23 08:03:10;;;;;;;;;;;;;;;;;;5098081;28;28531;-83
2022/04/23 08:05:35;;;;;;;;;;;;;;;;;;5097999;28;28411;-86
2022/04/23 08:08:00;;;;;;;;;;;;;;;;;;5095905;28;29369;-85
2022/04/23 08:10:25;;;;;;;;;;;;;;;;;;5097068;28;28514;-84
2022/04/23 08:12:50;;;;;;;;;;;;;;;;;;5096249;28;28562;-86
2022/04/23 08:15:16;;;;;;;;;;;;;;;;;;5097057;28;28541;-84
2022/04/23 08:17:41;;;;;;;;;;;;;;;;;;5097195;28;28421;-84
2022/04/23 08:20:06;;;;;;;;;;;;;;;;;;5096635;28;28579;-83
2022/04/23 08:22:31;;;;;;;;;;;;;;;;;;5096137;28;28395;-82
2022/04/23 08:24:56;;;;;;;;;;;;;;;;;;5097864;28;28396;-88
2022/04/23 08:27:21;;;;;;;;;;;;;;;;;;5080104;28;31031;-93
2022/04/23 08:32:30;;;;;;;;;;;;;;;;;;5102094;28;28447;-88
2022/04/23 08:34:55;;;;;;;;;;;;;;;;;;5099704;28;28449;-86
2022/04/23 08:37:22;;;;;;;;;;;;;;;;;;5100060;28;28445;-88
2022/04/23 08:39:47;;;;;;;;;;;;;;;;;;5101165;28;28379;-92
2022/04/23 08:42:12;;;;;;;;;;;;;;;;;;5101223;28;27826;-91
2022/04/23 08:44:37;;;;;;;;;;;;;;;;;;5099118;28;28414;-91
2022/04/23 08:47:04;;;;;;;;;;;;;;;;;;5098740;28;28550;-92
2022/04/23 08:49:29;;;;;;;;;;;;;;;;;;5097644;28;28374;-93
2022/04/23 08:51:54;;;;;;;;;;;;;;;;;;5081564;28;28471;-91
2022/04/23 08:54:19;;;;;;;;;;;;;;;;;;5098857;28;28335;-92
2022/04/23 08:56:44;;;;;;;;;;;;;;;;;;5099072;28;28415;-90
2022/04/23 08:59:09;;;;;;;;;;;;;;;;;;5097910;28;28407;-93
2022/04/23 09:01:35;;;;;;;;;;;;;;;;;;5097849;28;28696;-90
2022/04/23 09:04:01;;;;;;;;;;;;;;;;;;5097999;28;28513;-92
2022/04/23 09:06:27;;;;;;;;;;;;;;;;;;5098461;28;28414;-91
2022/04/23 09:08:52;;;;;;;;;;;;;;;;;;5097294;28;28560;-91
2022/04/23 09:11:17;;;;;;;;;;;;;;;;;;5078974;28;28438;-92
2022/04/23 09:13:42;;;;;;;;;;;;;;;;;;5097696;28;28382;-90
2022/04/23 09:24:19;;;;;;;;;;;;;;;;;;5115440;27;28422;-90
2022/04/23 09:26:44;;;;;;;;;;;;;;;;;;5102572;27;28453;-94
2022/04/23 09:29:09;;;;;;;;;;;;;;;;;;5098937;28;28534;-93
2022/04/23 09:31:34;;;;;;;;;;;;;;;;;;5093689;28;28415;-91
2022/04/23 09:34:00;;;;;;;;;;;;;;;;;;5079490;28;28581;-89
2022/04/23 09:36:25;;;;;;;;;;;;;;;;;;5095300;28;29790;-91
2022/04/23 09:38:50;;;;;;;;;;;;;;;;;;5096477;28;28146;-89
2022/04/23 09:41:21;;;;;;;;;;;;;;;;;;5096327;28;28466;-90
2022/04/23 09:43:46;;;;;;;;;;;;;;;;;;5096669;28;28537;-93
2022/04/23 09:46:11;;;;;;;;;;;;;;;;;;5080077;28;30950;-92
2022/04/23 09:48:38;;;;;;;;;;;;;;;;;;5078750;28;28960;-88
2022/04/23 09:51:03;;;;;;;;;;;;;;;;;;5096731;28;28218;-89
2022/04/23 09:53:28;;;;;;;;;;;;;;;;;;5096271;28;28506;-89
2022/04/23 09:58:33;;;;;;;;;;;;;;;;;;4578405;22;29070;-91
2022/04/23 10:00:58;;;;;;;;;;;;;;;;;;5141416;27;28497;-90
2022/04/23 10:03:23;;;;;;;;;;;;;;;;;;5141493;27;28537;-95
2022/04/23 10:05:48;;;;;;;;;;;;;;;;;;5143140;27;30059;-87
2022/04/23 10:08:13;;;;;;;;;;;;;;;;;;5138836;27;28508;-88
2022/04/23 10:10:38;;;;;;;;;;;;;;;;;;5136029;27;28602;-87
2022/04/23 10:13:03;;;;;;;;;;;;;;;;;;5137447;27;28732;-87
2022/04/23 10:15:29;;;;;;;;;;;;;;;;;;5140223;27;31372;-88
2022/04/23 10:17:55;;;;;;;;;;;;;;;;;;5137736;27;28642;-83
2022/04/23 10:20:21;;;;;;;;;;;;;;;;;;5155968;27;28484;-85
2022/04/23 10:22:47;;;;;;;;;;;;;;;;;;5156898;27;28469;-90
2022/04/23 10:25:12;;;;;;;;;;;;;;;;;;5139072;27;28387;-85
2022/04/23 10:27:37;;;;;;;;;;;;;;;;;;5156590;27;28513;-85
2022/04/23 10:30:04;;;;;;;;;;;;;;;;;;5158052;27;28527;-85
2022/04/23 10:32:29;;;;;;;;;;;;;;;;;;5157196;27;28408;-85
2022/04/23 10:34:54;;;;;;;;;;;;;;;;;;5156935;27;28767;-85
2022/04/23 10:37:20;;;;;;;;;;;;;;;;;;5155784;27;28246;-85
2022/04/23 10:39:45;;;;;;;;;;;;;;;;;;5156047;27;28718;-85
2022/04/23 10:42:10;;;;;;;;;;;;;;;;;;5156556;27;28457;-87
2022/04/23 10:44:35;;;;;;;;;;;;;;;;;;5156932;27;29351;-85
2022/04/23 10:47:00;;;;;;;;;;;;;;;;;;5157733;27;28345;-92
2022/04/23 10:49:25;;;;;;;;;;;;;;;;;;5156976;27;28417;-93
2022/04/23 10:51:51;;;;;;;;;;;;;;;;;;5161342;27;28484;-92
2022/04/23 10:54:18;;;;;;;;;;;;;;;;;;5159744;27;28418;-90
2022/04/23 10:56:44;;;;;;;;;;;;;;;;;;5157220;27;28311;-86
2022/04/23 10:59:09;;;;;;;;;;;;;;;;;;5157437;27;28449;-82
2022/04/23 11:01:36;;;;;;;;;;;;;;;;;;5156880;27;28407;-81
2022/04/23 11:04:01;;;;;;;;;;;;;;;;;;5156790;27;28492;-83
2022/04/23 11:12:15;;;;;;;;;;;;;;;;;;5156923;27;28388;-84
2022/04/23 11:14:40;;;;;;;;;;;;;;;;;;5157132;27;28354;-83
2022/04/23 11:17:05;;;;;;;;;;;;;;;;;;5157253;27;28386;-83
2022/04/23 11:19:30;;;;;;;;;;;;;;;;;;5156371;27;28413;-82
2022/04/23 11:21:55;;;;;;;;;;;;;;;;;;5156573;27;28390;-83
2022/04/23 11:24:22;;;;;;;;;;;;;;;;;;5137679;27;29796;-87
2022/04/23 11:26:49;;;;;;;;;;;;;;;;;;5157210;27;28316;-90
2022/04/23 11:29:14;;;;;;;;;;;;;;;;;;5158028;27;28294;-89
2022/04/23 11:31:40;;;;;;;;;;;;;;;;;;5156850;27;28900;-88
2022/04/23 11:34:05;;;;;;;;;;;;;;;;;;5159889;27;29489;-87
2022/04/23 11:36:30;;;;;;;;;;;;;;;;;;5159402;27;28503;-86
2022/04/23 11:38:55;;;;;;;;;;;;;;;;;;5160408;27;28342;-89
2022/04/23 11:41:20;;;;;;;;;;;;;;;;;;5160855;27;28577;-91
2022/04/23 11:43:45;;;;;;;;;;;;;;;;;;5159874;27;28496;-93
2022/04/23 11:46:11;;;;;;;;;;;;;;;;;;5161280;27;28418;-91
2022/04/23 11:48:36;;;;;;;;;;;;;;;;;;5161075;27;27769;-91
2022/04/23 11:51:01;;;;;;;;;;;;;;;;;;5160710;27;28385;-91
2022/04/23 11:53:26;;;;;;;;;;;;;;;;;;5160565;27;28719;-88
2022/04/23 11:55:51;;;;;;;;;;;;;;;;;;5159607;27;28569;-92
2022/04/23 11:58:16;;;;;;;;;;;;;;;;;;5160854;27;28311;-92
2022/04/23 12:00:41;;;;;;;;;;;;;;;;;;5160291;27;28370;-91
2022/04/23 12:03:08;;;;;;;;;;;;;;;;;;5159286;27;28548;-91
2022/04/23 12:05:34;;;;;;;;;;;;;;;;;;5160154;27;28350;-90
2022/04/23 12:07:59;;;;;;;;;;;;;;;;;;5159616;27;28488;-93
2022/04/23 12:10:25;;;;;;;;;;;;;;;;;;5158782;27;28416;-90
2022/04/23 12:12:53;;;;;;;;;;;;;;;;;;5159037;27;28454;-92
2022/04/23 12:15:20;;;;;;;;;;;;;;;;;;5136972;27;28959;-93
2022/04/23 12:17:45;;;;;;;;;;;;;;;;;;5140130;27;28386;-85
2022/04/23 12:20:10;;;;;;;;;;;;;;;;;;5158308;27;27978;-89
2022/04/23 12:22:35;;;;;;;;;;;;;;;;;;5158727;27;28610;-89
2022/04/23 12:25:00;;;;;;;;;;;;;;;;;;5158320;27;28433;-88
2022/04/23 12:27:25;;;;;;;;;;;;;;;;;;5159594;27;28383;-88
2022/04/23 12:40:47;;;;;;;;;;;;;;;;;;5093409;28;28810;-89
2022/04/23 12:43:12;;;;;;;;;;;;;;;;;;5093507;28;29310;-87
2022/04/23 12:45:37;;;;;;;;;;;;;;;;;;5092792;28;28584;-87
2022/04/23 12:48:02;;;;;;;;;;;;;;;;;;5093718;28;28616;-87
2022/04/23 12:50:29;;;;;;;;;;;;;;;;;;5093488;28;28565;-87
2022/04/23 12:52:54;;;;;;;;;;;;;;;;;;5093164;28;28649;-87
2022/04/23 12:55:19;;;;;;;;;;;;;;;;;;5093238;28;28465;-87
2022/04/23 12:57:44;;;;;;;;;;;;;;;;;;5093208;28;28594;-88
2022/04/23 13:00:11;;;;;;;;;;;;;;;;;;5093792;28;28517;-87
2022/04/23 13:02:36;;;;;;;;;;;;;;;;;;5094063;27;28538;-87
2022/04/23 13:05:01;;;;;;;;;;;;;;;;;;5093209;28;28506;-87
2022/04/23 13:10:10;;;;;;;;;;;;;;;;;;5138817;27;28508;-85
2022/04/23 13:12:35;;;;;;;;;;;;;;;;;;5158503;27;28305;-85
2022/04/23 13:15:01;;;;;;;;;;;;;;;;;;5157645;27;28544;-83
2022/04/23 13:17:26;;;;;;;;;;;;;;;;;;5158907;27;28411;-83
2022/04/23 13:19:51;;;;;;;;;;;;;;;;;;5158241;27;28453;-82
2022/04/23 13:22:16;;;;;;;;;;;;;;;;;;5157946;27;29086;-84
2022/04/23 13:24:41;;;;;;;;;;;;;;;;;;5157814;27;28318;-85
2022/04/23 13:27:06;;;;;;;;;;;;;;;;;;5139085;27;28336;-85
2022/04/23 13:29:31;;;;;;;;;;;;;;;;;;5158235;27;27826;-88
2022/04/23 13:31:57;;;;;;;;;;;;;;;;;;5159312;27;28595;-93
2022/04/23 13:34:22;;;;;;;;;;;;;;;;;;5159650;27;28449;-90
2022/04/23 13:36:47;;;;;;;;;;;;;;;;;;5140518;27;28503;-94
2022/04/23 13:39:12;;;;;;;;;;;;;;;;;;5161213;27;29048;-90
2022/04/23 13:41:37;;;;;;;;;;;;;;;;;;5163701;27;29481;-91
2022/04/23 13:44:02;;;;;;;;;;;;;;;;;;5158935;27;28558;-94
2022/04/23 13:46:27;;;;;;;;;;;;;;;;;;5140837;27;28353;-90
2022/04/23 13:48:53;;;;;;;;;;;;;;;;;;5150787;27;28472;-89
2022/04/23 13:51:18;;;;;;;;;;;;;;;;;;5154113;27;28322;-86
2022/04/23 13:53:43;;;;;;;;;;;;;;;;;;5157601;27;28668;-93
2022/04/23 13:56:08;;;;;;;;;;;;;;;;;;5162424;27;28441;-90
2022/04/23 13:58:34;;;;;;;;;;;;;;;;;;5162792;27;28531;-94
2022/04/23 14:00:59;;;;;;;;;;;;;;;;;;5162041;27;28547;-95
2022/04/23 14:11:36;;;;;;;;;;;;;;;;;;5161414;27;28323;-91
2022/04/23 14:14:01;;;;;;;;;;;;;;;;;;5140586;27;28540;-88
2022/04/23 14:16:26;;;;;;;;;;;;;;;;;;5140432;27;28393;-93
2022/04/23 14:18:51;;;;;;;;;;;;;;;;;;5162794;27;28431;-96
2022/04/23 14:21:16;;;;;;;;;;;;;;;;;;5164885;27;28526;-93
2022/04/23 14:23:41;;;;;;;;;;;;;;;;;;5151253;27;28419;-94
2022/04/23 14:26:06;;;;;;;;;;;;;;;;;;5137189;27;28428;-87
2022/04/23 14:28:31;;;;;;;;;;;;;;;;;;5137919;27;28941;-87
2022/04/23 14:30:57;;;;;;;;;;;;;;;;;;5139715;27;29603;-84
2022/04/23 14:33:22;;;;;;;;;;;;;;;;;;5158649;27;28465;-90
2022/04/23 14:35:48;;;;;;;;;;;;;;;;;;5145825;27;27791;-92
2022/04/23 14:38:13;;;;;;;;;;;;;;;;;;5162056;27;28559;-92
2022/04/23 14:40:38;;;;;;;;;;;;;;;;;;5161426;27;28382;-92
2022/04/23 14:43:05;;;;;;;;;;;;;;;;;;5158924;27;28502;-90
2022/04/23 14:45:30;;;;;;;;;;;;;;;;;;5141967;27;28469;-92
2022/04/23 14:47:55;;;;;;;;;;;;;;;;;;5159520;27;28495;-92
2022/04/23 14:50:21;;;;;;;;;;;;;;;;;;5158792;27;29214;-90
2022/04/23 14:55:30;;;;;;;;;;;;;;;;;;5158119;27;28526;-90
2022/04/23 14:57:55;;;;;;;;;;;;;;;;;;5158782;27;28323;-86
2022/04/23 15:00:20;;;;;;;;;;;;;;;;;;5156812;27;28495;-88
2022/04/23 15:02:46;;;;;;;;;;;;;;;;;;5156480;27;28457;-88
2022/04/23 15:05:11;;;;;;;;;;;;;;;;;;5150666;27;28228;-87
2022/04/23 15:07:38;;;;;;;;;;;;;;;;;;5157628;27;28328;-89
2022/04/23 15:10:03;;;;;;;;;;;;;;;;;;5157554;27;28501;-90
2022/04/23 15:12:28;;;;;;;;;;;;;;;;;;5157736;27;28323;-88
2022/04/23 15:14:54;;;;;;;;;;;;;;;;;;5157506;27;28228;-86
2022/04/23 15:17:19;;;;;;;;;;;;;;;;;;5157336;27;28372;-87
2022/04/23 15:19:44;;;;;;;;;;;;;;;;;;5157257;27;29390;-86
2022/04/23 15:22:09;;;;;;;;;;;;;;;;;;5157368;27;28378;-86
2022/04/23 15:24:34;;;;;;;;;;;;;;;;;;5157429;27;28347;-86
2022/04/23 15:27:00;;;;;;;;;;;;;;;;;;5157311;27;28423;-85
2022/04/23 15:29:25;;;;;;;;;;;;;;;;;;5157851;27;28384;-87
2022/04/23 15:31:50;;;;;;;;;;;;;;;;;;5139524;27;28333;-89
2022/04/23 15:34:16;;;;;;;;;;;;;;;;;;5158077;27;28334;-90
2022/04/23 15:36:41;;;;;;;;;;;;;;;;;;5158153;27;28378;-94
2022/04/23 15:39:06;;;;;;;;;;;;;;;;;;5140267;27;28497;-88
2022/04/23 15:41:31;;;;;;;;;;;;;;;;;;5139074;27;28442;-92
2022/04/23 15:43:57;;;;;;;;;;;;;;;;;;5158669;27;28465;-88
2022/04/23 15:46:25;;;;;;;;;;;;;;;;;;5161323;27;27834;-92
2022/04/23 15:48:50;;;;;;;;;;;;;;;;;;5163091;27;28663;-95
2022/04/23 15:51:15;;;;;;;;;;;;;;;;;;5158781;27;28444;-86
2022/04/23 15:53:40;;;;;;;;;;;;;;;;;;5156440;27;28562;-88
2022/04/23 15:56:06;;;;;;;;;;;;;;;;;;5156755;27;28436;-88
2022/04/23 15:58:32;;;;;;;;;;;;;;;;;;5156765;27;28570;-90
2022/04/23 16:00:58;;;;;;;;;;;;;;;;;;5154849;27;28379;-90
2022/04/23 16:03:26;;;;;;;;;;;;;;;;;;5157360;27;28334;-88
2022/04/23 16:05:51;;;;;;;;;;;;;;;;;;5156758;27;28442;-93
2022/04/23 16:08:16;;;;;;;;;;;;;;;;;;5138859;27;30246;-88
2022/04/23 16:10:41;;;;;;;;;;;;;;;;;;5156645;27;28382;-87
2022/04/23 16:13:09;;;;;;;;;;;;;;;;;;5156337;27;28495;-87
2022/04/23 16:15:34;;;;;;;;;;;;;;;;;;5158519;27;28499;-86
2022/04/23 16:18:03;;;;;;;;;;;;;;;;;;5150082;27;29295;-87
2022/04/23 16:20:29;;;;;;;;;;;;;;;;;;5136941;27;28268;-86
2022/04/23 16:22:54;;;;;;;;;;;;;;;;;;5120171;27;28503;-86
2022/04/23 16:25:19;;;;;;;;;;;;;;;;;;5138679;27;28413;-87
2022/04/23 16:27:45;;;;;;;;;;;;;;;;;;5143761;27;28236;-85
2022/04/23 16:30:10;;;;;;;;;;;;;;;;;;5158936;27;28580;-86
2022/04/23 16:32:35;;;;;;;;;;;;;;;;;;5159678;27;28939;-86
2022/04/23 16:35:00;;;;;;;;;;;;;;;;;;5140130;27;28521;-86
2022/04/23 16:48:20;;;;;;;;;;;;;;;;;;5160792;27;28847;-88
2022/04/23 16:50:45;;;;;;;;;;;;;;;;;;5160482;27;28443;-90
2022/04/23 16:53:10;;;;;;;;;;;;;;;;;;5142222;27;28424;-90
2022/04/23 16:55:36;;;;;;;;;;;;;;;;;;5159982;27;28398;-90
2022/04/23 16:58:01;;;;;;;;;;;;;;;;;;5162607;27;28446;-91
2022/04/23 17:00:26;;;;;;;;;;;;;;;;;;5160214;27;28577;-91
2022/04/23 17:02:51;;;;;;;;;;;;;;;;;;5158971;27;28425;-93
2022/04/23 17:05:17;;;;;;;;;;;;;;;;;;5162218;27;28307;-89
2022/04/23 17:07:42;;;;;;;;;;;;;;;;;;5160968;27;28509;-89
2022/04/23 17:10:08;;;;;;;;;;;;;;;;;;5159935;27;28394;-91
2022/04/23 17:12:34;;;;;;;;;;;;;;;;;;5160247;27;27831;-84
2022/04/23 17:14:59;;;;;;;;;;;;;;;;;;5162097;27;28531;-88
2022/04/23 17:17:24;;;;;;;;;;;;;;;;;;5161047;27;29318;-90
2022/04/23 17:19:49;;;;;;;;;;;;;;;;;;5158975;27;28503;-89
2022/04/23 17:22:15;;;;;;;;;;;;;;;;;;5159020;27;28461;-82
2022/04/23 17:24:40;;;;;;;;;;;;;;;;;;5158542;27;28376;-85
2022/04/23 17:27:06;;;;;;;;;;;;;;;;;;5158666;27;28506;-88
2022/04/23 17:29:31;;;;;;;;;;;;;;;;;;5159307;27;28491;-87
2022/04/23 17:31:56;;;;;;;;;;;;;;;;;;5140030;27;28279;-92
2022/04/23 17:34:23;;;;;;;;;;;;;;;;;;5159690;27;28448;-86
2022/04/23 17:36:50;;;;;;;;;;;;;;;;;;5139588;27;29363;-83
2022/04/23 17:39:15;;;;;;;;;;;;;;;;;;5158846;27;28434;-86
2022/04/23 17:41:43;;;;;;;;;;;;;;;;;;5139671;27;28343;-89